Time;durP1;ratioP1;P1;durP2;ratioP2;P2;SDS_P1;SDS_P2;PMS_P1;PMS_P2;Temp;Humidity;BMP_temperature;BMP_pressure;BME280_temperature;BME280_humidity;BME280_pressure;Samples;Min_cycle;Max_cycle;Signal;HPM_P1;HPM_P2
2022/11/30 00:00:18;;;;;;;126.33;47.17;;;;;;;;;;5057358;28;20033;-77
2022/11/30 00:02:44;;;;;;;132.30;45.37;;;;;;;;;;5063946;28;20022;-78
2022/11/30 00:05:10;;;;;;;122.77;45.57;;;;;;;;;;5045842;28;20090;-78
2022/11/30 00:07:37;;;;;;;132.77;46.57;;;;;;;;;;5046828;28;20031;-77
2022/11/30 00:10:03;;;;;;;136.43;49.23;;;;;;;;;;5040416;28;20025;-78
2022/11/30 00:12:29;;;;;;;126.60;46.73;;;;;;;;;;5044071;28;20361;-77
2022/11/30 00:14:55;;;;;;;140.43;51.00;;;;;;;;;;5046730;28;20036;-79
2022/11/30 00:17:21;;;;;;;141.03;48.13;;;;;;;;;;5043791;28;20078;-78
2022/11/30 00:19:47;;;;;;;137.27;49.63;;;;;;;;;;5050479;28;20037;-78
2022/11/30 00:22:13;;;;;;;150.97;49.27;;;;;;;;;;5046490;28;20104;-78
2022/11/30 00:24:39;;;;;;;149.37;49.23;;;;;;;;;;5042412;28;20060;-77
2022/11/30 00:27:06;;;;;;;144.33;50.93;;;;;;;;;;5044555;28;20445;-77
2022/11/30 00:29:32;;;;;;;145.17;50.50;;;;;;;;;;5057899;28;20067;-78
2022/11/30 00:31:59;;;;;;;148.60;52.93;;;;;;;;;;5040831;28;20086;-78
2022/11/30 00:34:25;;;;;;;162.37;54.10;;;;;;;;;;5041831;28;20129;-78
2022/11/30 00:36:51;;;;;;;159.37;52.10;;;;;;;;;;5046549;28;20056;-78
2022/11/30 00:39:19;;;;;;;149.13;50.77;;;;;;;;;;5040497;28;20030;-78
2022/11/30 00:41:48;;;;;;;170.63;54.43;;;;;;;;;;5057619;28;20043;-78
2022/11/30 00:44:14;;;;;;;171.53;52.87;;;;;;;;;;5044405;28;20061;-78
2022/11/30 00:46:42;;;;;;;154.60;53.43;;;;;;;;;;5045516;28;20036;-77
2022/11/30 00:49:08;;;;;;;165.40;52.30;;;;;;;;;;5048955;28;20033;-78
2022/11/30 00:51:34;;;;;;;169.83;55.23;;;;;;;;;;5043152;28;20025;-78
2022/11/30 00:54:00;;;;;;;173.10;52.60;;;;;;;;;;5046960;28;20453;-77
2022/11/30 00:56:26;;;;;;;173.83;55.30;;;;;;;;;;5043917;28;20541;-78
2022/11/30 00:58:53;;;;;;;175.53;53.77;;;;;;;;;;5040682;28;20037;-79
2022/11/30 01:01:19;;;;;;;173.07;54.33;;;;;;;;;;5042477;28;20045;-79
2022/11/30 01:03:45;;;;;;;165.53;54.50;;;;;;;;;;5056088;28;20033;-77
2022/11/30 01:06:11;;;;;;;155.20;53.40;;;;;;;;;;5058146;28;20091;-78
2022/11/30 01:08:39;;;;;;;159.53;50.63;;;;;;;;;;5044595;28;20029;-78
2022/11/30 01:11:16;;;;;;;151.13;52.23;;;;;;;;;;5048722;28;20098;-78
2022/11/30 01:13:42;;;;;;;150.27;52.10;;;;;;;;;;5039468;28;20112;-79
2022/11/30 01:16:16;;;;;;;158.53;53.13;;;;;;;;;;5050715;28;20083;-77
2022/11/30 01:18:42;;;;;;;141.93;48.37;;;;;;;;;;5053861;28;20025;-78
2022/11/30 01:21:09;;;;;;;147.37;48.87;;;;;;;;;;5040797;28;20026;-78
2022/11/30 01:23:40;;;;;;;154.53;49.63;;;;;;;;;;5053575;28;20056;-78
2022/11/30 01:26:07;;;;;;;148.00;49.00;;;;;;;;;;5053815;28;20029;-79
2022/11/30 01:28:33;;;;;;;152.63;49.10;;;;;;;;;;5054548;28;20120;-78
2022/11/30 01:31:00;;;;;;;165.23;50.13;;;;;;;;;;5036111;28;20465;-77
2022/11/30 01:33:27;;;;;;;164.63;49.27;;;;;;;;;;5072642;28;20024;-77
2022/11/30 01:35:59;;;;;;;166.43;51.60;;;;;;;;;;5057497;28;20056;-78
2022/11/30 01:38:26;;;;;;;155.53;48.67;;;;;;;;;;5057691;28;20086;-77
2022/11/30 01:40:52;;;;;;;173.60;49.73;;;;;;;;;;5070599;28;20071;-78
2022/11/30 01:43:19;;;;;;;172.60;51.23;;;;;;;;;;5046928;28;20055;-78
2022/11/30 01:45:47;;;;;;;185.30;51.70;;;;;;;;;;5052747;28;20033;-79
2022/11/30 01:48:15;;;;;;;185.80;53.17;;;;;;;;;;5053861;28;20021;-78
2022/11/30 01:50:43;;;;;;;189.60;53.17;;;;;;;;;;5054073;28;20025;-78
2022/11/30 01:53:11;;;;;;;215.07;56.07;;;;;;;;;;5057031;28;20047;-78
2022/11/30 01:55:41;;;;;;;207.27;54.43;;;;;;;;;;5058257;28;20025;-78
2022/11/30 01:58:10;;;;;;;234.47;58.67;;;;;;;;;;5050006;28;20481;-78
2022/11/30 02:00:36;;;;;;;241.47;60.33;;;;;;;;;;5037656;28;20449;-79
2022/11/30 02:03:21;;;;;;;246.13;60.40;;;;;;;;;;5056909;28;20025;-78
2022/11/30 02:05:48;;;;;;;272.80;63.10;;;;;;;;;;5057072;28;20056;-78
2022/11/30 02:08:14;;;;;;;271.83;59.07;;;;;;;;;;5058393;28;20025;-79
2022/11/30 02:10:44;;;;;;;288.10;58.80;;;;;;;;;;5044117;28;20038;-78
2022/11/30 02:13:33;;;;;;;295.67;64.70;;;;;;;;;;5078643;28;20024;-79
2022/11/30 02:16:32;;;;;;;277.80;64.33;;;;;;;;;;5035921;28;20034;-79
2022/11/30 02:19:06;;;;;;;287.47;63.60;;;;;;;;;;5026243;28;20432;-79
2022/11/30 02:21:41;;;;;;;280.67;57.57;;;;;;;;;;5055606;28;20025;-77
2022/11/30 02:24:07;;;;;;;307.67;62.33;;;;;;;;;;5056668;28;20060;-78
2022/11/30 02:26:36;;;;;;;281.40;59.83;;;;;;;;;;5053329;28;20072;-79
2022/11/30 02:29:05;;;;;;;301.73;59.03;;;;;;;;;;5057849;28;20033;-78
2022/11/30 02:31:41;;;;;;;240.03;52.23;;;;;;;;;;5059584;28;20334;-78
2022/11/30 02:34:09;;;;;;;256.80;58.47;;;;;;;;;;5056517;28;20029;-79
2022/11/30 02:36:36;;;;;;;252.57;56.60;;;;;;;;;;5057309;28;20025;-78
2022/11/30 02:39:02;;;;;;;275.43;56.07;;;;;;;;;;5070665;28;20049;-78
2022/11/30 02:41:34;;;;;;;268.73;56.17;;;;;;;;;;5055885;28;20441;-79
2022/11/30 02:44:00;;;;;;;246.35;52.67;;;;;;;;;;5052742;28;20026;-78
2022/11/30 02:46:32;;;;;;;257.23;55.93;;;;;;;;;;5053025;28;20029;-78
2022/11/30 02:49:04;;;;;;;254.10;56.47;;;;;;;;;;5071422;28;20040;-79
2022/11/30 02:51:31;;;;;;;240.03;54.30;;;;;;;;;;5067195;28;20271;-78
2022/11/30 02:54:00;;;;;;;225.30;52.57;;;;;;;;;;5042538;28;20036;-78
2022/11/30 02:56:26;;;;;;;248.07;56.00;;;;;;;;;;5056420;28;20029;-78
2022/11/30 02:58:52;;;;;;;244.57;53.87;;;;;;;;;;5042818;28;20373;-78
2022/11/30 03:01:21;;;;;;;250.03;56.10;;;;;;;;;;5065096;28;20025;-78
2022/11/30 03:03:47;;;;;;;276.43;53.57;;;;;;;;;;5056274;28;20024;-77
2022/11/30 03:06:13;;;;;;;249.27;53.13;;;;;;;;;;5056552;28;20052;-78
2022/11/30 03:08:39;;;;;;;251.07;54.00;;;;;;;;;;5056167;28;20029;-77
2022/11/30 03:11:05;;;;;;;209.23;49.70;;;;;;;;;;5056524;28;20025;-78
2022/11/30 03:13:32;;;;;;;256.00;54.60;;;;;;;;;;5055643;28;20036;-78
2022/11/30 03:16:04;;;;;;;226.30;53.90;;;;;;;;;;5056946;28;20468;-77
2022/11/30 03:18:31;;;;;;;243.38;54.15;;;;;;;;;;5068202;28;20360;-78
2022/11/30 03:20:57;;;;;;;226.87;52.50;;;;;;;;;;5043110;28;20017;-78
2022/11/30 03:23:25;;;;;;;236.03;52.93;;;;;;;;;;5054730;28;20382;-78
2022/11/30 03:25:56;;;;;;;240.23;54.37;;;;;;;;;;5036851;28;20029;-78
2022/11/30 03:28:22;;;;;;;252.67;54.40;;;;;;;;;;5055075;28;20025;-78
2022/11/30 03:30:49;;;;;;;240.40;51.83;;;;;;;;;;5055493;28;20029;-79
2022/11/30 03:33:16;;;;;;;247.43;54.67;;;;;;;;;;5052772;28;20033;-78
2022/11/30 03:35:42;;;;;;;248.90;52.97;;;;;;;;;;5051692;28;20109;-77
2022/11/30 03:38:08;;;;;;;259.37;57.73;;;;;;;;;;5061589;28;20048;-79
2022/11/30 03:40:36;;;;;;;288.83;57.50;;;;;;;;;;5055215;28;20461;-78
2022/11/30 03:43:02;;;;;;;289.77;58.27;;;;;;;;;;5055525;28;20093;-78
2022/11/30 03:45:28;;;;;;;267.83;55.33;;;;;;;;;;5056181;28;20025;-77
2022/11/30 03:47:54;;;;;;;285.50;61.23;;;;;;;;;;5054868;28;20093;-77
2022/11/30 03:50:20;;;;;;;333.40;63.47;;;;;;;;;;5054927;28;20426;-79
2022/11/30 03:52:46;;;;;;;310.87;60.83;;;;;;;;;;5069163;28;20043;-78
2022/11/30 03:55:12;;;;;;;357.40;63.10;;;;;;;;;;5062322;28;20035;-78
2022/11/30 03:57:38;;;;;;;433.67;71.97;;;;;;;;;;5060488;28;20021;-78
2022/11/30 04:00:05;;;;;;;403.40;69.70;;;;;;;;;;5055110;28;20021;-78
2022/11/30 04:02:31;;;;;;;420.97;73.50;;;;;;;;;;5055338;28;20056;-78
2022/11/30 04:04:57;;;;;;;419.67;71.47;;;;;;;;;;5054821;28;20029;-79
2022/11/30 04:07:26;;;;;;;425.10;72.13;;;;;;;;;;5065321;28;20020;-79
2022/11/30 04:09:52;;;;;;;464.97;74.03;;;;;;;;;;5058177;28;20032;-78
2022/11/30 04:12:18;;;;;;;444.33;74.00;;;;;;;;;;5055085;28;20029;-78
2022/11/30 04:14:44;;;;;;;446.33;75.13;;;;;;;;;;5055078;28;20029;-79
2022/11/30 04:17:12;;;;;;;467.00;74.47;;;;;;;;;;5059312;28;20524;-78
2022/11/30 04:19:38;;;;;;;546.27;75.83;;;;;;;;;;5054480;28;20500;-78
2022/11/30 04:22:04;;;;;;;470.77;71.83;;;;;;;;;;5055459;28;20049;-78
2022/11/30 04:24:30;;;;;;;499.30;76.90;;;;;;;;;;5054428;28;20075;-78
2022/11/30 04:26:56;;;;;;;475.43;76.30;;;;;;;;;;5057901;28;20060;-78
2022/11/30 04:29:25;;;;;;;606.70;83.47;;;;;;;;;;5066279;28;20025;-78
2022/11/30 04:31:51;;;;;;;545.40;78.37;;;;;;;;;;5054191;28;20033;-78
2022/11/30 04:34:17;;;;;;;480.03;75.33;;;;;;;;;;5054117;28;20025;-79
2022/11/30 04:36:43;;;;;;;389.97;70.47;;;;;;;;;;5054284;28;20025;-78
2022/11/30 04:39:09;;;;;;;430.27;76.60;;;;;;;;;;5054558;28;20029;-78
2022/11/30 04:41:35;;;;;;;367.63;72.70;;;;;;;;;;5071092;28;20036;-78
2022/11/30 04:44:01;;;;;;;365.83;71.13;;;;;;;;;;5054625;28;20357;-78
2022/11/30 04:46:29;;;;;;;327.53;69.73;;;;;;;;;;5054957;28;20445;-78
2022/11/30 04:48:55;;;;;;;301.37;69.87;;;;;;;;;;5053741;28;20059;-78
2022/11/30 04:51:21;;;;;;;272.23;62.80;;;;;;;;;;5054538;28;20076;-78
2022/11/30 04:53:47;;;;;;;248.13;61.63;;;;;;;;;;5053868;28;20354;-79
2022/11/30 04:56:18;;;;;;;255.87;58.63;;;;;;;;;;5068076;28;20079;-78
2022/11/30 04:58:44;;;;;;;223.47;57.80;;;;;;;;;;5054465;28;20051;-78
2022/11/30 05:01:10;;;;;;;236.03;59.47;;;;;;;;;;5053304;28;20441;-78
2022/11/30 05:03:36;;;;;;;204.27;62.03;;;;;;;;;;5053590;28;20025;-79
2022/11/30 05:06:05;;;;;;;221.87;59.60;;;;;;;;;;5061497;28;20043;-79
2022/11/30 05:08:31;;;;;;;208.07;57.43;;;;;;;;;;5054919;28;20467;-78
2022/11/30 05:10:57;;;;;;;185.93;53.80;;;;;;;;;;5048055;28;20474;-78
2022/11/30 05:13:24;;;;;;;213.17;58.97;;;;;;;;;;5047981;28;20036;-78
2022/11/30 05:15:52;;;;;;;187.83;53.70;;;;;;;;;;5047734;28;20392;-78
2022/11/30 05:18:18;;;;;;;184.60;55.43;;;;;;;;;;5050375;28;20063;-78
2022/11/30 05:20:48;;;;;;;165.13;51.73;;;;;;;;;;5059104;28;20025;-78
2022/11/30 05:23:15;;;;;;;161.90;51.87;;;;;;;;;;5063399;28;20021;-78
2022/11/30 05:25:41;;;;;;;175.27;53.10;;;;;;;;;;5061236;28;20083;-79
2022/11/30 05:28:07;;;;;;;186.77;56.10;;;;;;;;;;5047073;28;20433;-79
2022/11/30 05:30:33;;;;;;;183.37;56.67;;;;;;;;;;5056784;28;20433;-78
2022/11/30 05:32:59;;;;;;;201.77;61.03;;;;;;;;;;5062420;28;20039;-78
2022/11/30 05:35:25;;;;;;;204.33;59.00;;;;;;;;;;5043648;28;20116;-78
2022/11/30 05:37:51;;;;;;;213.03;61.33;;;;;;;;;;5046718;28;20521;-79
2022/11/30 05:40:17;;;;;;;241.63;62.70;;;;;;;;;;5044003;28;20501;-78
2022/11/30 05:42:43;;;;;;;230.57;62.97;;;;;;;;;;5044959;28;20056;-78
2022/11/30 05:45:10;;;;;;;239.67;66.40;;;;;;;;;;5045897;28;20040;-77
2022/11/30 05:47:36;;;;;;;232.10;64.30;;;;;;;;;;5046288;28;20055;-78
2022/11/30 05:50:02;;;;;;;230.80;62.90;;;;;;;;;;5060588;28;20063;-79
2022/11/30 05:52:28;;;;;;;218.63;64.30;;;;;;;;;;5044313;28;20036;-79
2022/11/30 05:54:54;;;;;;;211.13;63.90;;;;;;;;;;5066167;28;20364;-78
2022/11/30 05:57:20;;;;;;;213.97;63.07;;;;;;;;;;5045731;28;20488;-77
2022/11/30 05:59:46;;;;;;;205.00;64.97;;;;;;;;;;5045281;28;20025;-78
2022/11/30 06:02:12;;;;;;;182.50;59.17;;;;;;;;;;5054747;28;20100;-79
2022/11/30 06:04:38;;;;;;;194.80;61.87;;;;;;;;;;5042749;28;20037;-77
2022/11/30 06:07:04;;;;;;;189.77;60.90;;;;;;;;;;5044634;28;20033;-79
2022/11/30 06:09:30;;;;;;;170.57;57.57;;;;;;;;;;5056135;28;20061;-79
2022/11/30 06:11:56;;;;;;;167.87;57.70;;;;;;;;;;5057873;28;20029;-79
2022/11/30 06:14:22;;;;;;;161.67;56.03;;;;;;;;;;5046782;28;20055;-79
2022/11/30 06:16:48;;;;;;;149.57;55.83;;;;;;;;;;5043939;28;20017;-78
2022/11/30 06:19:14;;;;;;;147.87;53.87;;;;;;;;;;5059743;28;20033;-78
2022/11/30 06:21:41;;;;;;;144.33;54.07;;;;;;;;;;5049920;28;20468;-79
2022/11/30 06:24:07;;;;;;;144.13;52.97;;;;;;;;;;5047992;28;20584;-79
2022/11/30 06:26:33;;;;;;;122.30;48.63;;;;;;;;;;5047596;28;20032;-79
2022/11/30 06:28:59;;;;;;;134.43;50.50;;;;;;;;;;5062759;28;20045;-78
2022/11/30 06:31:25;;;;;;;120.43;46.90;;;;;;;;;;5045549;28;20095;-78
2022/11/30 06:33:51;;;;;;;101.20;42.63;;;;;;;;;;5046720;28;20029;-78
2022/11/30 06:36:24;;;;;;;98.73;44.43;;;;;;;;;;5060566;28;20408;-79
2022/11/30 06:38:50;;;;;;;96.97;42.47;;;;;;;;;;5060042;28;20049;-78
2022/11/30 06:41:16;;;;;;;93.20;42.73;;;;;;;;;;5048968;28;20029;-78
2022/11/30 06:43:46;;;;;;;100.17;41.70;;;;;;;;;;5046060;28;20037;-78
2022/11/30 06:46:12;;;;;;;95.10;42.70;;;;;;;;;;5063239;28;20053;-78
2022/11/30 06:48:38;;;;;;;80.90;38.67;;;;;;;;;;5041999;28;20107;-78
2022/11/30 06:51:08;;;;;;;84.53;38.60;;;;;;;;;;5048375;28;20033;-78
2022/11/30 06:53:36;;;;;;;85.23;38.03;;;;;;;;;;5065101;28;20112;-79
2022/11/30 06:56:06;;;;;;;80.67;37.97;;;;;;;;;;5058585;28;20026;-80
2022/11/30 06:58:32;;;;;;;73.70;35.37;;;;;;;;;;5045581;28;20025;-79
2022/11/30 07:00:58;;;;;;;80.47;38.00;;;;;;;;;;5049001;28;20033;-78
2022/11/30 07:03:24;;;;;;;80.70;38.07;;;;;;;;;;5049050;28;20091;-79
2022/11/30 07:05:51;;;;;;;74.40;34.63;;;;;;;;;;5042106;28;20040;-79
2022/11/30 07:08:17;;;;;;;78.03;37.13;;;;;;;;;;5044800;28;20481;-78
2022/11/30 07:10:44;;;;;;;77.07;36.93;;;;;;;;;;5050684;28;20025;-78
2022/11/30 07:13:11;;;;;;;73.07;36.77;;;;;;;;;;5046069;28;20036;-78
2022/11/30 07:15:38;;;;;;;85.07;37.07;;;;;;;;;;5070796;28;20079;-78
2022/11/30 07:18:04;;;;;;;85.47;38.37;;;;;;;;;;5056269;28;20087;-78
2022/11/30 07:20:30;;;;;;;71.70;33.93;;;;;;;;;;5056906;28;20041;-78
2022/11/30 07:22:56;;;;;;;78.67;38.20;;;;;;;;;;5060815;28;20063;-79
2022/11/30 07:28:11;;;;;;;69.53;34.47;;;;;;;;;;5028277;28;20033;-78
2022/11/30 07:30:37;;;;;;;74.27;35.40;;;;;;;;;;5055675;28;20124;-78
2022/11/30 07:33:03;;;;;;;69.23;35.20;;;;;;;;;;5056247;28;20060;-77
2022/11/30 07:35:32;;;;;;;65.27;33.13;;;;;;;;;;5046473;28;20056;-79
2022/11/30 07:37:58;;;;;;;73.00;35.67;;;;;;;;;;5067931;28;20035;-78
2022/11/30 07:40:24;;;;;;;70.87;35.00;;;;;;;;;;5057202;28;20310;-78
2022/11/30 07:42:54;;;;;;;62.27;30.93;;;;;;;;;;5066964;28;20048;-78
2022/11/30 07:45:20;;;;;;;66.57;34.03;;;;;;;;;;5062351;28;20039;-79
2022/11/30 07:47:46;;;;;;;63.67;34.20;;;;;;;;;;5062991;28;20029;-77
2022/11/30 07:50:12;;;;;;;74.50;36.43;;;;;;;;;;5055583;28;20025;-78
2022/11/30 07:52:38;;;;;;;66.00;32.97;;;;;;;;;;5058078;28;20440;-77
2022/11/30 07:55:04;;;;;;;65.83;33.57;;;;;;;;;;5065873;28;20055;-77
2022/11/30 07:57:30;;;;;;;66.20;33.33;;;;;;;;;;5070044;28;20028;-77
2022/11/30 07:59:56;;;;;;;64.00;31.60;;;;;;;;;;5055791;28;20021;-78
2022/11/30 08:02:25;;;;;;;72.13;33.30;;;;;;;;;;5071978;28;20450;-78
2022/11/30 08:04:51;;;;;;;67.30;34.27;;;;;;;;;;5075708;28;20024;-77
2022/11/30 08:07:17;;;;;;;62.07;32.87;;;;;;;;;;5063554;28;20025;-78
2022/11/30 08:09:44;;;;;;;68.37;35.10;;;;;;;;;;5056834;28;20445;-78
2022/11/30 08:12:10;;;;;;;67.30;32.57;;;;;;;;;;5055106;28;20094;-76
2022/11/30 08:14:36;;;;;;;70.90;35.37;;;;;;;;;;5054125;28;20048;-77
2022/11/30 08:17:02;;;;;;;74.33;33.87;;;;;;;;;;5058058;28;20025;-78
2022/11/30 08:19:28;;;;;;;74.53;36.57;;;;;;;;;;5068783;28;20550;-77
2022/11/30 08:21:56;;;;;;;73.17;37.73;;;;;;;;;;5060847;28;20029;-76
2022/11/30 08:24:22;;;;;;;67.50;35.27;;;;;;;;;;5062131;28;20040;-77
2022/11/30 08:26:51;;;;;;;69.77;35.60;;;;;;;;;;5068751;28;20055;-80
2022/11/30 08:29:17;;;;;;;72.73;35.53;;;;;;;;;;5034718;28;20029;-76
2022/11/30 08:31:43;;;;;;;72.90;36.27;;;;;;;;;;5065637;28;20059;-78
2022/11/30 08:34:10;;;;;;;76.50;37.47;;;;;;;;;;5063470;28;20047;-79
2022/11/30 08:36:36;;;;;;;77.70;38.73;;;;;;;;;;5059005;28;20108;-80
2022/11/30 08:39:05;;;;;;;71.83;37.63;;;;;;;;;;5055104;28;20032;-80
2022/11/30 08:41:33;;;;;;;75.63;38.07;;;;;;;;;;5054831;28;20044;-75
2022/11/30 08:44:00;;;;;;;69.47;37.33;;;;;;;;;;5068653;28;20399;-77
2022/11/30 08:46:26;;;;;;;70.23;36.97;;;;;;;;;;5054290;28;20091;-80
2022/11/30 08:48:53;;;;;;;63.70;34.53;;;;;;;;;;5069624;28;20024;-78
2022/11/30 08:51:19;;;;;;;73.30;36.60;;;;;;;;;;5068239;28;20028;-76
2022/11/30 08:53:46;;;;;;;70.03;36.50;;;;;;;;;;5053979;28;20025;-76
2022/11/30 08:56:24;;;;;;;80.03;39.70;;;;;;;;;;5069185;28;20032;-76
2022/11/30 08:58:50;;;;;;;68.50;35.37;;;;;;;;;;5061789;28;20079;-77
2022/11/30 09:01:17;;;;;;;70.97;37.53;;;;;;;;;;5055098;28;20021;-78
2022/11/30 09:03:44;;;;;;;70.13;37.43;;;;;;;;;;5054429;28;20029;-78
2022/11/30 09:06:13;;;;;;;71.80;37.50;;;;;;;;;;5054204;28;20075;-79
2022/11/30 09:08:40;;;;;;;65.10;36.40;;;;;;;;;;5053920;28;20461;-78
2022/11/30 09:11:09;;;;;;;68.80;36.47;;;;;;;;;;5073287;28;20033;-78
2022/11/30 09:13:35;;;;;;;66.30;36.23;;;;;;;;;;5054389;28;20028;-79
2022/11/30 09:16:01;;;;;;;70.30;38.83;;;;;;;;;;5054411;28;20029;-76
2022/11/30 09:18:27;;;;;;;69.20;37.33;;;;;;;;;;5056013;28;20021;-77
2022/11/30 09:20:58;;;;;;;67.13;37.33;;;;;;;;;;5067486;28;20450;-78
2022/11/30 09:23:24;;;;;;;70.03;37.10;;;;;;;;;;5056504;28;20021;-78
2022/11/30 09:26:01;;;;;;;74.87;37.87;;;;;;;;;;5064750;28;20035;-78
2022/11/30 09:28:29;;;;;;;72.67;37.50;;;;;;;;;;5062351;28;20071;-77
2022/11/30 09:30:59;;;;;;;87.40;39.43;;;;;;;;;;5054688;28;20108;-78
2022/11/30 09:33:25;;;;;;;66.33;36.57;;;;;;;;;;5061966;28;20052;-77
2022/11/30 09:35:55;;;;;;;64.50;34.03;;;;;;;;;;5066573;28;20016;-79
2022/11/30 09:38:24;;;;;;;67.97;36.37;;;;;;;;;;5058446;28;20032;-79
2022/11/30 09:40:57;;;;;;;68.07;35.93;;;;;;;;;;5051177;28;20108;-78
2022/11/30 09:43:23;;;;;;;68.97;39.10;;;;;;;;;;5061548;28;20036;-79
2022/11/30 09:45:54;;;;;;;71.00;37.33;;;;;;;;;;5073796;28;20024;-79
2022/11/30 09:48:36;;;;;;;70.53;35.23;;;;;;;;;;5054705;28;20040;-80
2022/11/30 09:51:08;;;;;;;69.72;35.50;;;;;;;;;;5072656;28;20029;-77
2022/11/30 09:53:34;;;;;;;64.53;35.10;;;;;;;;;;5077204;28;20075;-79
2022/11/30 09:56:02;;;;;;;73.90;38.93;;;;;;;;;;5060379;28;20035;-78
2022/11/30 09:58:43;;;;;;;68.90;38.43;;;;;;;;;;5067949;28;20021;-79
2022/11/30 10:01:14;;;;;;;67.47;36.70;;;;;;;;;;5060727;28;20020;-80
2022/11/30 10:03:40;;;;;;;74.50;38.40;;;;;;;;;;5067236;28;20149;-78
2022/11/30 10:06:10;;;;;;;72.73;38.67;;;;;;;;;;5058361;28;20029;-80
2022/11/30 10:09:01;;;;;;;74.57;39.80;;;;;;;;;;5058705;28;20021;-77
2022/11/30 10:11:27;;;;;;;74.77;38.60;;;;;;;;;;5074053;28;20097;-79
2022/11/30 10:14:14;;;;;;;73.30;39.83;;;;;;;;;;5060546;28;20456;-79
2022/11/30 10:16:59;;;;;;;76.80;39.00;;;;;;;;;;5054139;28;20126;-78
2022/11/30 10:19:25;;;;;;;70.90;36.00;;;;;;;;;;5053671;28;20338;-78
2022/11/30 10:22:10;;;;;;;69.67;37.83;;;;;;;;;;5057508;28;20029;-78
2022/11/30 10:24:48;;;;;;;76.57;41.93;;;;;;;;;;5057692;28;20024;-77
2022/11/30 10:27:25;;;;;;;75.60;39.43;;;;;;;;;;5044850;28;20028;-79
2022/11/30 10:29:51;;;;;;;75.87;39.63;;;;;;;;;;5069848;28;20025;-78
2022/11/30 10:32:17;;;;;;;76.73;40.37;;;;;;;;;;5058868;28;20082;-79
2022/11/30 10:34:43;;;;;;;85.33;42.93;;;;;;;;;;5067859;28;20405;-79
2022/11/30 10:37:24;;;;;;;81.53;44.73;;;;;;;;;;5057005;28;20036;-77
2022/11/30 10:40:05;;;;;;;84.57;44.87;;;;;;;;;;5057565;28;20100;-78
2022/11/30 10:42:34;;;;;;;85.53;45.63;;;;;;;;;;5045594;28;20028;-79
2022/11/30 10:45:04;;;;;;;84.67;44.37;;;;;;;;;;5056899;28;20453;-79
2022/11/30 10:47:35;;;;;;;87.80;44.73;;;;;;;;;;5059565;28;20115;-78
2022/11/30 10:50:02;;;;;;;85.50;43.53;;;;;;;;;;5074325;28;20397;-77
2022/11/30 10:52:33;;;;;;;90.07;45.87;;;;;;;;;;5056752;28;20025;-78
2022/11/30 10:55:00;;;;;;;85.77;45.30;;;;;;;;;;5057363;28;20021;-78
2022/11/30 10:57:29;;;;;;;88.83;46.60;;;;;;;;;;5072672;28;20024;-78
2022/11/30 10:59:56;;;;;;;88.97;47.90;;;;;;;;;;5056995;28;20094;-78
2022/11/30 11:02:49;;;;;;;90.20;48.57;;;;;;;;;;5069980;28;20032;-77
2022/11/30 11:05:15;;;;;;;86.20;47.00;;;;;;;;;;5052888;28;20033;-78
2022/11/30 11:07:52;;;;;;;91.17;48.07;;;;;;;;;;5057796;28;20124;-78
2022/11/30 11:10:20;;;;;;;86.13;47.43;;;;;;;;;;5070090;28;20060;-77
2022/11/30 11:12:48;;;;;;;96.27;50.50;;;;;;;;;;5059877;28;20108;-77
2022/11/30 11:15:25;;;;;;;92.10;49.80;;;;;;;;;;5053669;28;20059;-77
2022/11/30 11:17:51;;;;;;;91.07;49.13;;;;;;;;;;5052198;28;20025;-77
2022/11/30 11:20:30;;;;;;;84.90;47.13;;;;;;;;;;5049290;28;20029;-77
2022/11/30 11:22:56;;;;;;;93.50;47.03;;;;;;;;;;5049131;28;20025;-77
2022/11/30 11:25:24;;;;;;;94.20;48.93;;;;;;;;;;5043957;28;20204;-76
2022/11/30 11:27:51;;;;;;;93.37;48.47;;;;;;;;;;5058478;28;20033;-76
2022/11/30 11:30:27;;;;;;;98.03;50.10;;;;;;;;;;5059784;28;20037;-78
2022/11/30 11:33:03;;;;;;;93.73;48.73;;;;;;;;;;5058093;28;20110;-78
2022/11/30 11:35:37;;;;;;;97.00;48.37;;;;;;;;;;5060169;28;20033;-76
2022/11/30 11:38:17;;;;;;;93.23;49.20;;;;;;;;;;5046524;28;20021;-76
2022/11/30 11:40:54;;;;;;;96.93;50.80;;;;;;;;;;5046512;28;20025;-76
2022/11/30 11:43:21;;;;;;;100.57;52.00;;;;;;;;;;5061051;28;20500;-78
2022/11/30 11:45:51;;;;;;;99.80;52.43;;;;;;;;;;5044464;28;20453;-77
2022/11/30 11:48:33;;;;;;;102.80;52.47;;;;;;;;;;5059310;28;20045;-78
2022/11/30 11:51:04;;;;;;;112.03;54.20;;;;;;;;;;5050329;28;20037;-76
2022/11/30 11:53:48;;;;;;;102.70;53.05;;;;;;;;;;5044904;28;20039;-77
2022/11/30 11:56:17;;;;;;;111.00;55.77;;;;;;;;;;5045300;28;20024;-77
2022/11/30 11:58:58;;;;;;;120.00;54.77;;;;;;;;;;5062328;28;20116;-79
2022/11/30 12:01:37;;;;;;;107.13;54.57;;;;;;;;;;5054309;28;20087;-77
2022/11/30 12:04:12;;;;;;;111.63;53.23;;;;;;;;;;5059299;28;20033;-79
2022/11/30 12:06:39;;;;;;;106.20;52.53;;;;;;;;;;5060381;28;20094;-78
2022/11/30 12:09:12;;;;;;;120.67;56.47;;;;;;;;;;5045294;28;20029;-77
2022/11/30 12:11:38;;;;;;;122.07;56.53;;;;;;;;;;5059933;28;20461;-77
2022/11/30 12:14:09;;;;;;;114.93;56.13;;;;;;;;;;5060173;28;20064;-80
2022/11/30 12:16:44;;;;;;;119.67;56.00;;;;;;;;;;5058189;28;20029;-77
2022/11/30 12:19:13;;;;;;;120.17;56.10;;;;;;;;;;5063736;28;20088;-80
2022/11/30 12:21:58;;;;;;;122.23;55.97;;;;;;;;;;5049573;28;20096;-77
2022/11/30 12:24:43;;;;;;;117.80;55.47;;;;;;;;;;5061896;28;20029;-78
2022/11/30 12:27:09;;;;;;;122.50;58.13;;;;;;;;;;5044964;28;20036;-78
2022/11/30 12:29:53;;;;;;;121.60;57.23;;;;;;;;;;5045021;28;20029;-78
2022/11/30 12:32:25;;;;;;;126.70;56.07;;;;;;;;;;5041562;28;20033;-78
2022/11/30 12:34:54;;;;;;;128.07;57.57;;;;;;;;;;5043853;28;20094;-77
2022/11/30 12:37:38;;;;;;;123.20;57.20;;;;;;;;;;5062945;28;20120;-77
2022/11/30 12:40:17;;;;;;;129.03;58.97;;;;;;;;;;5060907;28;21753;-78
2022/11/30 12:42:55;;;;;;;135.20;60.60;;;;;;;;;;5052784;28;20621;-78
2022/11/30 12:45:35;;;;;;;127.53;59.27;;;;;;;;;;5061074;28;20029;-78
2022/11/30 12:48:17;;;;;;;138.33;59.87;;;;;;;;;;5044957;28;20024;-78
2022/11/30 12:50:55;;;;;;;134.02;59.00;;;;;;;;;;5046820;28;20048;-78
2022/11/30 12:53:21;;;;;;;126.23;58.20;;;;;;;;;;5058343;28;20040;-78
2022/11/30 12:55:56;;;;;;;131.30;58.23;;;;;;;;;;5059944;28;20033;-79
2022/11/30 12:58:30;;;;;;;148.23;61.80;;;;;;;;;;5061249;28;20033;-77
2022/11/30 13:01:15;;;;;;;126.67;59.83;;;;;;;;;;5061074;28;20025;-78
2022/11/30 13:03:59;;;;;;;141.73;61.43;;;;;;;;;;5045032;28;20025;-79
2022/11/30 13:06:33;;;;;;;141.03;62.30;;;;;;;;;;5057235;28;20021;-78
2022/11/30 13:08:59;;;;;;;145.47;60.27;;;;;;;;;;5042413;28;20112;-79
2022/11/30 13:11:32;;;;;;;138.37;61.73;;;;;;;;;;5044203;28;20025;-80
2022/11/30 13:13:59;;;;;;;134.75;58.63;;;;;;;;;;5058163;28;20462;-79
2022/11/30 13:16:26;;;;;;;128.37;55.43;;;;;;;;;;5054069;28;20056;-79
2022/11/30 13:18:57;;;;;;;140.93;60.47;;;;;;;;;;5053943;28;20441;-78
2022/11/30 13:21:23;;;;;;;140.70;58.20;;;;;;;;;;5057097;28;20028;-78
2022/11/30 13:24:08;;;;;;;134.00;58.00;;;;;;;;;;5066034;28;20040;-78
2022/11/30 13:26:53;;;;;;;126.37;56.67;;;;;;;;;;5082676;28;20073;-78
2022/11/30 13:29:38;;;;;;;133.37;58.70;;;;;;;;;;5077643;28;20021;-79
2022/11/30 13:32:10;;;;;;;126.53;56.47;;;;;;;;;;5063874;28;20389;-79
2022/11/30 13:34:36;;;;;;;125.75;56.28;;;;;;;;;;5064784;28;20350;-78
2022/11/30 13:37:02;;;;;;;121.97;57.47;;;;;;;;;;5061877;28;20033;-79
2022/11/30 13:39:29;;;;;;;124.53;58.00;;;;;;;;;;5057890;28;20460;-78
2022/11/30 13:42:01;;;;;;;117.03;56.20;;;;;;;;;;5057553;28;20033;-78
2022/11/30 13:44:32;;;;;;;124.22;57.55;;;;;;;;;;5067285;28;20101;-78
2022/11/30 13:46:59;;;;;;;117.33;55.13;;;;;;;;;;5059844;28;20029;-79
2022/11/30 13:49:35;;;;;;;118.97;56.90;;;;;;;;;;5043558;28;20028;-78
2022/11/30 13:52:02;;;;;;;124.37;57.10;;;;;;;;;;5070265;28;20039;-79
2022/11/30 13:54:40;;;;;;;118.73;55.73;;;;;;;;;;5063229;28;20048;-79
2022/11/30 13:57:16;;;;;;;124.57;56.87;;;;;;;;;;5066510;28;20028;-79
2022/11/30 13:59:50;;;;;;;113.53;54.30;;;;;;;;;;5084476;28;20014;-78
2022/11/30 14:02:32;;;;;;;114.77;54.23;;;;;;;;;;5054139;28;20020;-79
2022/11/30 14:05:24;;;;;;;111.63;53.23;;;;;;;;;;5049585;28;20025;-79
2022/11/30 14:07:50;;;;;;;109.18;52.63;;;;;;;;;;5037769;28;20119;-78
2022/11/30 14:10:28;;;;;;;110.93;52.07;;;;;;;;;;5056770;28;20446;-78
2022/11/30 14:13:19;;;;;;;102.60;51.93;;;;;;;;;;5056976;28;20026;-79
2022/11/30 14:15:45;;;;;;;98.43;49.17;;;;;;;;;;5046373;28;20072;-79
2022/11/30 14:18:11;;;;;;;105.90;50.70;;;;;;;;;;5061567;28;20028;-79
2022/11/30 14:20:37;;;;;;;102.33;50.00;;;;;;;;;;5063822;28;20067;-78
2022/11/30 14:23:08;;;;;;;105.30;50.17;;;;;;;;;;5058727;28;20106;-78